createdAt,value
2017-12-29T00:00:33.794Z,2.10
2017-12-29T00:03:01.223Z,2.10
2017-12-29T00:05:30.593Z,2.00
2017-12-29T00:07:58.422Z,2.20
2017-12-29T00:10:25.851Z,1.60
2017-12-29T00:12:53.280Z,2.17
2017-12-29T00:15:20.695Z,2.40
2017-12-29T00:17:48.133Z,1.75
2017-12-29T00:20:15.583Z,2.30
2017-12-29T00:22:43.874Z,2.55
2017-12-29T00:25:11.351Z,2.20
2017-12-29T00:27:38.815Z,2.12
2017-12-29T00:30:06.338Z,1.65
2017-12-29T00:32:34.685Z,1.92
2017-12-29T00:35:02.190Z,3.35
2017-12-29T00:37:29.641Z,2.10
2017-12-29T00:39:57.109Z,1.90
2017-12-29T00:42:24.556Z,2.45
2017-12-29T00:44:52.022Z,2.90
2017-12-29T00:47:19.515Z,1.85
2017-12-29T00:49:46.960Z,2.05
2017-12-29T00:52:14.430Z,2.30
2017-12-29T00:54:42.286Z,2.60
2017-12-29T00:57:09.745Z,2.20
2017-12-29T00:59:37.186Z,2.50
2017-12-29T01:02:04.641Z,2.08
2017-12-29T01:04:34.081Z,2.28
2017-12-29T01:07:01.952Z,1.80
2017-12-29T01:09:30.726Z,2.70
2017-12-29T01:11:58.587Z,2.25
2017-12-29T01:14:26.450Z,3.15
2017-12-29T01:16:53.906Z,2.53
2017-12-29T01:19:21.754Z,2.30
2017-12-29T01:21:50.172Z,1.90
2017-12-29T01:24:17.631Z,2.25
2017-12-29T01:26:45.076Z,2.20
2017-12-29T01:29:12.926Z,1.65
2017-12-29T01:31:40.384Z,2.10
2017-12-29T01:34:07.849Z,2.45
2017-12-29T01:36:35.744Z,2.85
2017-12-29T01:39:03.178Z,2.12
2017-12-29T01:41:31.058Z,2.28
2017-12-29T01:43:58.883Z,2.00
2017-12-29T01:46:26.360Z,2.35
2017-12-29T01:48:53.803Z,2.42
2017-12-29T01:51:21.237Z,2.10
2017-12-29T01:53:48.681Z,2.75
2017-12-29T01:56:16.163Z,1.98
2017-12-29T01:58:43.585Z,2.53
2017-12-29T02:01:11.025Z,1.60
2017-12-29T02:03:38.454Z,2.45
2017-12-29T02:06:06.305Z,2.20
2017-12-29T02:08:33.754Z,1.75
2017-12-29T02:11:01.189Z,1.80
2017-12-29T02:13:28.623Z,1.65
2017-12-29T02:15:58.013Z,1.58
2017-12-29T02:18:26.314Z,2.37
2017-12-29T02:20:53.746Z,2.00
2017-12-29T02:23:21.586Z,2.53
2017-12-29T02:25:49.018Z,2.03
2017-12-29T02:28:16.477Z,2.25
2017-12-29T02:30:45.122Z,2.50
2017-12-29T02:33:12.566Z,2.22
2017-12-29T02:35:40.901Z,1.85
2017-12-29T02:38:08.342Z,2.25
2017-12-29T02:40:35.798Z,1.80
2017-12-29T02:43:03.242Z,2.80
2017-12-29T02:45:30.674Z,2.85
2017-12-29T02:47:58.126Z,2.90
2017-12-29T02:50:25.957Z,2.00
2017-12-29T02:52:53.406Z,2.60
2017-12-29T02:55:20.851Z,3.03
2017-12-29T02:57:48.312Z,1.67
2017-12-29T03:00:16.622Z,2.00
2017-12-29T03:02:44.119Z,2.20
2017-12-29T03:05:11.558Z,2.45
2017-12-29T03:07:39.000Z,2.30
2017-12-29T03:10:06.842Z,2.42
2017-12-29T03:12:34.297Z,2.25
2017-12-29T03:15:01.750Z,1.90
2017-12-29T03:17:29.193Z,2.75
2017-12-29T03:19:56.638Z,1.73
2017-12-29T03:22:24.977Z,2.78
2017-12-29T03:24:52.815Z,2.60
2017-12-29T03:27:20.252Z,2.25
2017-12-29T03:29:47.701Z,2.42
2017-12-29T03:32:17.074Z,3.00
2017-12-29T03:34:44.513Z,2.15
2017-12-29T03:37:13.232Z,3.05
2017-12-29T03:39:40.691Z,2.55
2017-12-29T03:42:08.132Z,3.92
2017-12-29T03:44:36.546Z,2.58
2017-12-29T03:47:03.966Z,2.40
2017-12-29T03:49:31.736Z,2.28
2017-12-29T03:51:59.165Z,3.80
2017-12-29T03:54:27.010Z,2.85
2017-12-29T03:56:55.369Z,2.70
2017-12-29T03:59:22.814Z,3.00
2017-12-29T04:01:50.281Z,2.70
2017-12-29T04:04:19.665Z,2.50
2017-12-29T04:06:47.994Z,4.05
2017-12-29T04:09:15.434Z,2.70
2017-12-29T04:11:42.886Z,2.50
2017-12-29T04:14:10.330Z,2.22
2017-12-29T04:16:37.770Z,3.10
2017-12-29T04:19:05.225Z,2.75
2017-12-29T04:21:32.686Z,2.50
2017-12-29T04:24:00.127Z,2.20
2017-12-29T04:26:28.484Z,3.55
2017-12-29T04:28:56.322Z,2.70
2017-12-29T04:31:23.791Z,2.45
2017-12-29T04:33:51.213Z,2.40
2017-12-29T04:36:18.661Z,2.85
2017-12-29T04:38:46.117Z,2.37
2017-12-29T04:41:14.493Z,2.70
2017-12-29T04:43:41.945Z,3.53
2017-12-29T04:46:09.398Z,2.65
2017-12-29T04:48:36.830Z,2.03
2017-12-29T04:51:04.657Z,2.75
2017-12-29T04:53:34.059Z,2.60
2017-12-29T04:56:02.530Z,2.33
2017-12-29T04:58:29.962Z,2.37
2017-12-29T05:00:57.420Z,3.08
2017-12-29T05:03:24.881Z,3.37
2017-12-29T05:05:52.356Z,3.17
2017-12-29T05:08:19.791Z,2.87
2017-12-29T05:10:47.227Z,3.50
2017-12-29T05:13:15.065Z,3.08
2017-12-29T05:15:42.490Z,2.75
2017-12-29T05:18:10.801Z,3.70
2017-12-29T05:20:38.265Z,3.00
2017-12-29T05:23:05.701Z,2.80
2017-12-29T05:25:33.137Z,3.60
2017-12-29T05:28:00.585Z,3.75
2017-12-29T05:30:28.041Z,3.85
2017-12-29T05:32:55.490Z,2.83
2017-12-29T05:35:22.931Z,3.35
2017-12-29T05:37:51.233Z,4.37
2017-12-29T05:40:18.676Z,4.05
2017-12-29T05:42:46.097Z,3.65
2017-12-29T05:45:13.932Z,3.72
2017-12-29T05:47:41.374Z,3.20
2017-12-29T05:50:08.821Z,3.08
2017-12-29T05:52:36.266Z,3.78
2017-12-29T05:55:03.702Z,3.62
2017-12-29T05:57:31.522Z,3.33
2017-12-29T05:59:58.961Z,4.15
2017-12-29T06:02:26.405Z,3.67
2017-12-29T06:04:53.849Z,2.78
2017-12-29T06:07:21.315Z,3.25
2017-12-29T06:09:49.123Z,3.90
2017-12-29T06:12:16.561Z,3.42
2017-12-29T06:14:44.886Z,3.20
2017-12-29T06:17:12.722Z,2.95
2017-12-29T06:19:41.055Z,2.95
2017-12-29T06:22:08.497Z,3.15
2017-12-29T06:24:36.322Z,2.67
2017-12-29T06:27:03.751Z,3.28
2017-12-29T06:29:31.407Z,3.45
2017-12-29T06:31:58.834Z,3.22
2017-12-29T06:34:26.654Z,2.87
2017-12-29T06:36:54.985Z,3.22
2017-12-29T06:39:22.421Z,25.88
2017-12-29T06:41:50.264Z,8.35
2017-12-29T06:44:17.706Z,2.90
2017-12-29T06:46:45.145Z,8.85
2017-12-29T06:49:12.606Z,10.35
2017-12-29T06:51:40.047Z,4.12
2017-12-29T06:54:09.450Z,3.70
2017-12-29T06:56:36.889Z,3.53
2017-12-29T06:59:04.338Z,3.47
2017-12-29T07:01:32.165Z,4.20
2017-12-29T07:03:59.612Z,3.15
2017-12-29T07:06:27.054Z,2.90
2017-12-29T07:08:54.490Z,3.05
2017-12-29T07:11:21.931Z,3.12
2017-12-29T07:13:50.619Z,3.50
2017-12-29T07:16:19.335Z,3.60
2017-12-29T07:18:46.792Z,3.37
2017-12-29T07:21:14.642Z,3.10
2017-12-29T07:23:42.083Z,3.75
2017-12-29T07:26:09.922Z,3.17
2017-12-29T07:28:37.364Z,3.72
2017-12-29T07:31:04.817Z,4.55
2017-12-29T07:33:32.294Z,9.55
2017-12-29T07:35:59.734Z,3.00
2017-12-29T07:38:27.206Z,3.05
2017-12-29T07:40:54.637Z,3.72
2017-12-29T07:43:23.007Z,4.72
2017-12-29T07:45:50.472Z,4.00
2017-12-29T07:48:17.925Z,3.90
2017-12-29T07:50:45.414Z,4.00
2017-12-29T07:53:12.879Z,5.97
2017-12-29T07:55:40.316Z,3.87
2017-12-29T07:58:07.830Z,3.92
2017-12-29T08:00:36.233Z,3.10
2017-12-29T08:03:03.719Z,4.20
2017-12-29T08:05:34.678Z,3.15
2017-12-29T08:08:03.009Z,4.30
2017-12-29T08:10:30.514Z,3.65
2017-12-29T08:12:57.970Z,3.08
2017-12-29T08:15:25.846Z,3.15
2017-12-29T08:17:53.705Z,3.03
2017-12-29T08:20:21.187Z,4.18
2017-12-29T08:22:49.026Z,4.70
2017-12-29T08:25:16.473Z,4.10
2017-12-29T08:27:43.941Z,3.20
2017-12-29T08:30:11.417Z,3.55
2017-12-29T08:32:40.130Z,3.40
2017-12-29T08:35:07.580Z,4.12
2017-12-29T08:37:35.036Z,4.12
2017-12-29T08:40:02.465Z,3.90
2017-12-29T08:42:31.170Z,4.35
2017-12-29T08:44:58.621Z,4.62
2017-12-29T08:47:26.053Z,3.20
2017-12-29T08:49:53.506Z,3.60
2017-12-29T08:52:20.954Z,3.45
2017-12-29T08:54:48.387Z,3.75
2017-12-29T08:57:15.849Z,3.45
2017-12-29T08:59:44.161Z,3.83
2017-12-29T09:02:11.986Z,3.03
2017-12-29T09:04:39.426Z,3.33
2017-12-29T09:07:07.796Z,3.08
2017-12-29T09:09:35.229Z,3.03
2017-12-29T09:12:03.102Z,3.37
2017-12-29T09:14:30.502Z,3.72
2017-12-29T09:16:57.945Z,3.47
2017-12-29T09:19:25.377Z,3.25
2017-12-29T09:21:54.775Z,2.42
2017-12-29T09:24:22.596Z,2.70
2017-12-29T09:26:50.038Z,2.62
2017-12-29T09:29:17.489Z,3.08
2017-12-29T09:31:44.933Z,2.55
2017-12-29T09:34:13.273Z,3.05
2017-12-29T09:36:41.107Z,2.42
2017-12-29T09:39:08.543Z,2.25
2017-12-29T09:41:37.014Z,2.50
2017-12-29T09:44:04.451Z,2.10
2017-12-29T09:46:31.888Z,2.00
2017-12-29T09:48:59.723Z,2.12
2017-12-29T09:51:27.177Z,1.80
2017-12-29T09:53:54.606Z,2.40
2017-12-29T09:56:22.042Z,2.95
2017-12-29T09:58:49.481Z,2.03
2017-12-29T10:01:17.337Z,2.40
2017-12-29T10:03:44.786Z,2.47
2017-12-29T10:06:12.210Z,2.30
2017-12-29T10:08:39.655Z,2.35
2017-12-29T10:11:08.055Z,1.80
2017-12-29T10:13:35.478Z,2.20
2017-12-29T10:16:02.915Z,1.98
2017-12-29T10:18:30.737Z,1.73
2017-12-29T10:20:58.177Z,1.80
2017-12-29T10:23:25.627Z,1.98
2017-12-29T10:25:55.009Z,1.83
2017-12-29T10:28:22.446Z,2.30
2017-12-29T10:30:52.257Z,2.10
2017-12-29T10:33:20.984Z,2.00
2017-12-29T10:35:49.346Z,1.90
2017-12-29T10:38:16.785Z,2.17
2017-12-29T10:40:44.642Z,1.92
2017-12-29T10:43:13.793Z,1.95
2017-12-29T10:45:41.230Z,1.98
2017-12-29T10:48:08.661Z,1.75
2017-12-29T10:50:36.512Z,2.58
2017-12-29T10:53:04.860Z,2.20
2017-12-29T10:55:32.304Z,1.50
2017-12-29T10:58:00.677Z,1.48
2017-12-29T11:00:28.132Z,1.90
2017-12-29T11:02:55.557Z,1.98
2017-12-29T11:05:23.389Z,2.28
2017-12-29T11:07:50.826Z,1.87
2017-12-29T11:10:18.269Z,1.80
2017-12-29T11:12:47.707Z,2.12
2017-12-29T11:15:15.164Z,2.10
2017-12-29T11:17:42.597Z,1.90
2017-12-29T11:20:11.005Z,2.45
2017-12-29T11:22:38.846Z,2.47
2017-12-29T11:25:06.303Z,1.90
2017-12-29T11:27:33.741Z,2.60
2017-12-29T11:30:01.188Z,3.20
2017-12-29T11:32:28.601Z,2.00
2017-12-29T11:34:56.049Z,2.62
2017-12-29T11:37:23.477Z,2.45
2017-12-29T11:39:50.928Z,1.67
2017-12-29T11:42:18.357Z,2.42
2017-12-29T11:44:45.814Z,2.10
2017-12-29T11:47:14.529Z,1.95
2017-12-29T11:49:41.994Z,1.70
2017-12-29T11:52:09.426Z,1.60
2017-12-29T11:54:36.878Z,1.48
2017-12-29T11:57:04.307Z,1.83
2017-12-29T11:59:31.758Z,2.65
2017-12-29T12:02:01.133Z,2.33
2017-12-29T12:04:28.575Z,1.92
2017-12-29T12:06:56.335Z,1.70
2017-12-29T12:09:23.758Z,2.45
2017-12-29T12:11:51.234Z,1.90
2017-12-29T12:14:19.046Z,1.75
2017-12-29T12:16:46.480Z,1.83
2017-12-29T12:19:15.850Z,2.00
2017-12-29T12:21:43.285Z,1.52
2017-12-29T12:24:11.138Z,1.60
2017-12-29T12:26:38.578Z,2.00
2017-12-29T12:29:06.027Z,2.40
2017-12-29T12:31:34.394Z,2.53
2017-12-29T12:34:01.831Z,1.58
2017-12-29T12:36:31.225Z,1.58
2017-12-29T12:38:58.763Z,1.35
2017-12-29T12:41:26.604Z,1.40
2017-12-29T12:43:54.050Z,2.05
2017-12-29T12:46:22.302Z,1.67
2017-12-29T12:48:49.755Z,1.95
2017-12-29T12:51:17.180Z,1.55
2017-12-29T12:53:45.030Z,1.75
2017-12-29T12:56:12.478Z,1.55
2017-12-29T12:58:39.929Z,1.20
2017-12-29T13:01:07.364Z,2.00
2017-12-29T13:03:34.808Z,1.30
2017-12-29T13:06:03.158Z,1.10
2017-12-29T13:08:30.996Z,1.77
2017-12-29T13:10:58.429Z,2.22
2017-12-29T13:13:25.989Z,1.33
2017-12-29T13:15:53.424Z,1.30
2017-12-29T13:18:20.877Z,1.55
2017-12-29T13:20:48.305Z,1.30
2017-12-29T13:23:17.027Z,1.58
2017-12-29T13:25:44.459Z,1.52
2017-12-29T13:28:12.782Z,1.58
2017-12-29T13:30:40.226Z,1.70
2017-12-29T13:33:07.672Z,1.92
2017-12-29T13:35:35.114Z,1.25
2017-12-29T13:38:02.557Z,1.17
2017-12-29T13:40:30.965Z,1.62
2017-12-29T13:42:58.378Z,1.67
2017-12-29T13:45:26.221Z,1.55
2017-12-29T13:47:53.655Z,1.75
2017-12-29T13:50:22.038Z,1.62
2017-12-29T13:52:49.481Z,1.85
2017-12-29T13:55:16.935Z,1.20
2017-12-29T13:57:44.448Z,1.25
2017-12-29T14:00:11.838Z,1.45
2017-12-29T14:02:39.288Z,1.62
2017-12-29T14:05:06.735Z,1.20
2017-12-29T14:07:34.567Z,1.42
2017-12-29T14:10:02.025Z,1.85
2017-12-29T14:12:30.310Z,1.40
2017-12-29T14:14:57.769Z,1.90
2017-12-29T14:17:25.194Z,1.25
2017-12-29T14:19:52.649Z,2.10
2017-12-29T14:22:20.121Z,2.10
2017-12-29T14:24:47.587Z,1.30
2017-12-29T14:27:15.035Z,1.45
2017-12-29T14:29:42.484Z,1.75
2017-12-29T14:32:09.954Z,2.12
2017-12-29T14:34:37.425Z,1.85
2017-12-29T14:37:04.878Z,1.42
2017-12-29T14:39:32.336Z,1.40
2017-12-29T14:41:59.774Z,2.12
2017-12-29T14:44:27.222Z,1.50
2017-12-29T14:46:54.671Z,1.80
2017-12-29T14:49:22.128Z,1.40
2017-12-29T14:51:49.592Z,1.50
2017-12-29T14:54:17.057Z,1.35
2017-12-29T14:56:45.466Z,1.70
2017-12-29T14:59:12.999Z,1.20
2017-12-29T15:01:40.474Z,1.33
2017-12-29T15:04:07.948Z,1.70
2017-12-29T15:06:35.836Z,1.65
2017-12-29T15:09:04.608Z,1.70
2017-12-29T15:11:32.479Z,2.25
2017-12-29T15:14:00.333Z,1.48
2017-12-29T15:16:28.618Z,1.98
2017-12-29T15:18:56.478Z,2.00
2017-12-29T15:21:23.935Z,1.60
2017-12-29T15:23:51.436Z,1.70
2017-12-29T15:26:18.950Z,1.35
2017-12-29T15:28:46.408Z,1.50
2017-12-29T15:31:13.865Z,1.23
2017-12-29T15:33:41.327Z,1.67
2017-12-29T15:36:09.693Z,1.40
2017-12-29T15:38:37.155Z,2.08
2017-12-29T15:41:04.609Z,1.85
2017-12-29T15:43:34.084Z,1.67
2017-12-29T15:46:01.522Z,1.90
2017-12-29T15:48:28.999Z,1.90
2017-12-29T15:50:58.335Z,1.50
2017-12-29T15:53:25.774Z,1.65
2017-12-29T15:55:53.464Z,1.77
2017-12-29T15:58:21.319Z,0.93
2017-12-29T16:00:50.934Z,0.88
2017-12-29T16:03:18.795Z,1.40
2017-12-29T16:05:46.258Z,1.10
2017-12-29T16:08:14.119Z,1.15
2017-12-29T16:10:41.571Z,1.55
2017-12-29T16:13:09.038Z,1.10
2017-12-29T16:15:37.394Z,1.15
2017-12-29T16:18:04.887Z,1.02
2017-12-29T16:20:32.738Z,1.20
2017-12-29T16:23:00.591Z,1.30
2017-12-29T16:25:28.048Z,1.17
2017-12-29T16:27:55.510Z,1.70
2017-12-29T16:30:22.982Z,1.45
2017-12-29T16:32:50.837Z,1.60
2017-12-29T16:35:20.548Z,1.48
2017-12-29T16:37:48.004Z,1.40
2017-12-29T16:40:16.399Z,1.25
2017-12-29T16:42:44.247Z,1.15
2017-12-29T16:45:11.743Z,1.20
2017-12-29T16:47:40.145Z,1.10
2017-12-29T16:50:07.630Z,1.40
2017-12-29T16:52:35.078Z,0.80
2017-12-29T16:55:04.482Z,1.50
2017-12-29T16:57:32.860Z,1.73
2017-12-29T17:00:01.243Z,2.03
2017-12-29T17:02:28.750Z,1.50
2017-12-29T17:04:56.582Z,1.90
2017-12-29T17:07:24.116Z,1.17
2017-12-29T17:12:29.709Z,1.80
2017-12-29T17:14:57.161Z,1.00
2017-12-29T17:17:24.655Z,1.08
2017-12-29T17:19:52.137Z,1.50
2017-12-29T17:22:19.606Z,1.40
2017-12-29T17:24:47.094Z,1.30
2017-12-29T17:27:14.560Z,1.20
2017-12-29T17:29:42.408Z,1.70
2017-12-29T17:32:09.847Z,1.40
2017-12-29T17:34:37.315Z,1.20
2017-12-29T17:37:05.571Z,1.35
2017-12-29T17:39:33.032Z,1.23
2017-12-29T17:42:01.406Z,1.70
2017-12-29T17:44:29.555Z,1.45
2017-12-29T17:46:57.943Z,1.40
2017-12-29T17:49:25.380Z,0.90
2017-12-29T17:51:52.846Z,1.00
2017-12-29T17:54:20.298Z,1.23
2017-12-29T17:56:47.768Z,1.10
2017-12-29T17:59:15.191Z,1.35
2017-12-29T18:01:43.087Z,1.87
2017-12-29T18:04:11.484Z,1.52
2017-12-29T18:06:38.980Z,1.30
2017-12-29T18:09:07.041Z,1.80
2017-12-29T18:11:35.353Z,1.77
2017-12-29T18:14:03.218Z,1.90
2017-12-29T18:16:31.057Z,1.85
2017-12-29T18:18:58.919Z,1.42
2017-12-29T18:21:26.646Z,1.35
2017-12-29T18:23:54.126Z,1.55
2017-12-29T18:26:22.197Z,1.30
2017-12-29T18:28:50.557Z,1.50
2017-12-29T18:31:18.043Z,1.73
2017-12-29T18:33:46.517Z,2.20
2017-12-29T18:36:13.986Z,2.20
2017-12-29T18:38:41.473Z,1.73
2017-12-29T18:41:09.309Z,1.92
2017-12-29T18:43:36.777Z,2.20
2017-12-29T18:46:04.283Z,1.60
2017-12-29T18:48:31.711Z,1.77
2017-12-29T18:51:00.476Z,1.80
2017-12-29T18:53:27.933Z,2.28
2017-12-29T18:55:55.398Z,2.05
2017-12-29T18:58:22.853Z,1.35
2017-12-29T19:00:50.334Z,2.20
2017-12-29T19:03:18.788Z,3.03
2017-12-29T19:05:47.012Z,2.70
2017-12-29T19:08:14.551Z,2.20
2017-12-29T19:10:42.395Z,2.28
2017-12-29T19:13:09.903Z,4.12
2017-12-29T19:15:39.118Z,5.70
2017-12-29T19:18:06.609Z,2.70
2017-12-29T19:20:34.547Z,6.87
2017-12-29T19:23:02.071Z,5.30
2017-12-29T19:25:29.552Z,4.18
2017-12-29T19:27:57.061Z,2.60
2017-12-29T19:30:24.928Z,2.55
2017-12-29T19:32:52.802Z,8.15
2017-12-29T19:35:21.756Z,2.25
2017-12-29T19:37:49.288Z,3.30
2017-12-29T19:40:17.542Z,3.55
2017-12-29T19:42:45.393Z,3.10
2017-12-29T19:45:13.258Z,2.87
2017-12-29T19:47:41.095Z,3.65
2017-12-29T19:50:11.406Z,3.92
2017-12-29T19:52:39.784Z,4.40
2017-12-29T19:55:07.946Z,3.42
2017-12-29T19:57:35.422Z,3.75
2017-12-29T20:00:03.873Z,2.33
2017-12-29T20:02:31.366Z,3.30
2017-12-29T20:04:58.817Z,3.47
2017-12-29T20:07:27.155Z,3.62
2017-12-29T20:09:54.643Z,3.53
2017-12-29T20:12:23.029Z,3.20
2017-12-29T20:14:50.615Z,3.20
2017-12-29T20:17:18.110Z,2.80
2017-12-29T20:19:45.605Z,3.10
2017-12-29T20:22:15.003Z,3.35
2017-12-29T20:24:43.518Z,3.50
2017-12-29T20:27:11.057Z,3.47
2017-12-29T20:29:38.511Z,4.07
2017-12-29T20:32:06.031Z,3.80
2017-12-29T20:34:33.508Z,3.55
2017-12-29T20:37:00.941Z,4.40
2017-12-29T20:39:28.405Z,4.45
2017-12-29T20:41:56.770Z,4.70
2017-12-29T20:44:24.213Z,4.18
2017-12-29T20:46:51.727Z,4.55
2017-12-29T20:49:19.171Z,5.37
2017-12-29T20:51:46.661Z,4.32
2017-12-29T20:54:14.108Z,3.40
2017-12-29T20:56:41.589Z,4.80
2017-12-29T20:59:11.023Z,5.05
2017-12-29T21:01:38.912Z,4.12
2017-12-29T21:04:06.359Z,3.85
2017-12-29T21:06:33.873Z,5.00
2017-12-29T21:09:01.383Z,4.85
2017-12-29T21:11:28.840Z,4.72
2017-12-29T21:13:56.306Z,4.90
2017-12-29T21:16:23.744Z,4.35
2017-12-29T21:18:51.222Z,4.45
2017-12-29T21:21:18.669Z,5.50
2017-12-29T21:23:46.143Z,5.45
2017-12-29T21:26:15.370Z,4.72
2017-12-29T21:28:42.829Z,5.53
2017-12-29T21:31:10.270Z,6.05
2017-12-29T21:33:37.721Z,3.80
2017-12-29T21:36:05.185Z,5.82
2017-12-29T21:38:32.610Z,5.97
2017-12-29T21:41:00.085Z,5.55
2017-12-29T21:43:28.438Z,5.55
2017-12-29T21:45:55.896Z,5.43
2017-12-29T21:48:23.951Z,4.32
2017-12-29T21:50:51.414Z,5.20
2017-12-29T21:53:18.879Z,5.77
2017-12-29T21:55:46.350Z,4.82
2017-12-29T21:58:14.723Z,5.40
2017-12-29T22:00:42.174Z,6.30
2017-12-29T22:03:09.628Z,5.12
2017-12-29T22:05:37.067Z,5.15
2017-12-29T22:08:04.679Z,5.70
2017-12-29T22:10:33.197Z,4.95
2017-12-29T22:13:00.633Z,5.50
2017-12-29T22:15:28.564Z,6.85
2017-12-29T22:17:56.297Z,5.55
2017-12-29T22:20:24.732Z,6.20
2017-12-29T22:22:52.188Z,5.62
2017-12-29T22:25:21.585Z,6.20
2017-12-29T22:27:49.027Z,5.35
2017-12-29T22:30:17.382Z,5.50
2017-12-29T22:32:44.827Z,4.47
2017-12-29T22:35:13.172Z,5.65
2017-12-29T22:37:41.042Z,6.55
2017-12-29T22:40:08.951Z,5.68
2017-12-29T22:42:36.389Z,6.12
2017-12-29T22:45:03.858Z,7.00
2017-12-29T22:47:31.307Z,4.35
2017-12-29T22:49:58.797Z,5.20
2017-12-29T22:52:26.252Z,6.80
2017-12-29T22:54:53.694Z,6.18
2017-12-29T22:57:21.170Z,6.18
2017-12-29T22:59:48.638Z,6.25
2017-12-29T23:02:16.089Z,4.70
2017-12-29T23:04:43.546Z,7.40
2017-12-29T23:07:11.001Z,5.68
2017-12-29T23:09:38.439Z,6.62
2017-12-29T23:12:07.845Z,5.47
2017-12-29T23:14:35.307Z,4.72
2017-12-29T23:17:02.761Z,6.28
2017-12-29T23:19:30.225Z,5.90
2017-12-29T23:21:57.667Z,6.72
2017-12-29T23:24:25.123Z,6.10
2017-12-29T23:26:52.590Z,5.70
2017-12-29T23:29:20.054Z,5.45
2017-12-29T23:31:47.556Z,4.70
2017-12-29T23:34:15.040Z,5.70
2017-12-29T23:36:42.509Z,4.40
2017-12-29T23:39:09.969Z,5.70
2017-12-29T23:41:37.406Z,5.03
2017-12-29T23:44:04.854Z,5.50
2017-12-29T23:46:32.716Z,5.53
2017-12-29T23:49:00.160Z,4.82
2017-12-29T23:51:28.039Z,5.85
2017-12-29T23:53:55.906Z,4.60
2017-12-29T23:56:23.783Z,5.20
2017-12-29T23:58:52.071Z,4.70
